createdAt,value
2023-05-22T00:02:42.927Z,5.05
2023-05-22T00:05:45.980Z,5.47
2023-05-22T00:08:48.535Z,5.38
2023-05-22T00:11:51.817Z,5.35
2023-05-22T00:14:54.437Z,5.93
2023-05-22T00:17:57.761Z,5.20
2023-05-22T00:21:00.353Z,6.60
2023-05-22T00:24:03.116Z,4.97
2023-05-22T00:27:05.944Z,5.47
2023-05-22T00:30:09.024Z,5.47
2023-05-22T00:33:12.494Z,6.65
2023-05-22T00:36:15.603Z,4.82
2023-05-22T00:39:18.162Z,5.35
2023-05-22T00:42:21.764Z,5.97
2023-05-22T00:45:24.671Z,5.83
2023-05-22T00:48:27.972Z,6.22
2023-05-22T00:51:31.088Z,6.63
2023-05-22T00:54:33.808Z,5.15
2023-05-22T00:57:38.448Z,5.95
2023-05-22T01:00:42.828Z,5.90
2023-05-22T01:03:46.944Z,5.93
2023-05-22T01:06:49.975Z,5.50
2023-05-22T01:09:52.789Z,5.43
2023-05-22T01:13:14.544Z,5.88
2023-05-22T01:16:19.030Z,5.20
2023-05-22T01:19:54.106Z,8.27
2023-05-22T01:23:22.662Z,5.28
2023-05-22T01:26:47.044Z,5.07
2023-05-22T01:30:21.502Z,5.35
2023-05-22T01:33:28.247Z,5.57
2023-05-22T01:36:35.123Z,5.15
2023-05-22T01:39:39.147Z,6.70
2023-05-22T01:42:42.361Z,5.95
2023-05-22T01:45:45.037Z,4.97
2023-05-22T01:48:47.664Z,4.83
2023-05-22T01:51:56.291Z,6.20
2023-05-22T01:55:07.598Z,6.32
2023-05-22T01:58:37.356Z,5.93
2023-05-22T02:01:40.792Z,5.30
2023-05-22T02:04:47.195Z,4.80
2023-05-22T02:07:50.978Z,5.53
2023-05-22T02:10:56.862Z,5.70
2023-05-22T02:14:00.113Z,7.03
2023-05-22T02:17:03.654Z,5.60
2023-05-22T02:20:14.454Z,5.80
2023-05-22T02:23:19.471Z,6.30
2023-05-22T02:26:22.191Z,6.20
2023-05-22T02:29:25.269Z,5.32
2023-05-22T02:32:28.547Z,5.15
2023-05-22T02:35:31.474Z,5.00
2023-05-22T02:38:34.072Z,5.25
2023-05-22T02:41:36.669Z,5.15
2023-05-22T02:44:39.345Z,5.50
2023-05-22T02:47:42.081Z,5.47
2023-05-22T02:50:44.746Z,5.13
2023-05-22T02:53:47.417Z,5.70
2023-05-22T02:56:50.090Z,6.22
2023-05-22T02:59:52.759Z,5.82
2023-05-22T03:02:55.611Z,6.63
2023-05-22T03:05:58.612Z,5.03
2023-05-22T03:09:01.360Z,5.78
2023-05-22T03:12:05.192Z,6.70
2023-05-22T03:15:08.307Z,6.78
2023-05-22T03:18:11.792Z,4.80
2023-05-22T03:21:15.473Z,4.97
2023-05-22T03:24:18.115Z,4.93
2023-05-22T03:27:21.383Z,4.88
2023-05-22T03:30:24.923Z,5.55
2023-05-22T03:33:42.159Z,5.07
2023-05-22T03:36:45.400Z,5.27
2023-05-22T03:39:49.999Z,5.95
2023-05-22T03:42:58.177Z,5.78
2023-05-22T03:46:01.348Z,5.60
2023-05-22T03:49:04.020Z,6.90
2023-05-22T03:52:06.720Z,5.50
2023-05-22T03:55:09.417Z,5.32
2023-05-22T03:58:12.238Z,5.43
2023-05-22T04:01:16.921Z,6.47
2023-05-22T04:04:19.682Z,6.15
2023-05-22T04:07:22.427Z,5.70
2023-05-22T04:10:25.226Z,4.75
2023-05-22T04:13:27.835Z,5.05
2023-05-22T04:16:30.584Z,5.20
2023-05-22T04:19:33.254Z,6.00
2023-05-22T04:22:35.978Z,5.73
2023-05-22T04:25:39.061Z,5.20
2023-05-22T04:28:46.084Z,5.22
2023-05-22T04:31:48.852Z,5.00
2023-05-22T04:34:51.553Z,5.00
2023-05-22T04:37:54.165Z,4.87
2023-05-22T04:40:58.267Z,4.72
2023-05-22T04:44:04.141Z,5.72
2023-05-22T04:47:08.202Z,5.18
2023-05-22T04:50:12.028Z,5.90
2023-05-22T04:53:14.543Z,4.40
2023-05-22T04:56:27.952Z,4.97
2023-05-22T04:59:41.540Z,5.78
2023-05-22T05:02:45.202Z,7.20
2023-05-22T05:05:47.865Z,5.15
2023-05-22T05:08:50.526Z,5.70
2023-05-22T05:11:53.616Z,5.97
2023-05-22T05:14:56.260Z,6.13
2023-05-22T05:17:58.834Z,5.60
2023-05-22T05:21:01.528Z,6.15
2023-05-22T05:24:04.101Z,5.53
2023-05-22T05:27:06.846Z,5.22
2023-05-22T05:30:10.943Z,6.45
2023-05-22T05:33:33.882Z,7.18
2023-05-22T05:36:48.646Z,5.32
2023-05-22T05:39:52.332Z,5.63
2023-05-22T05:42:56.428Z,7.22
2023-05-22T05:46:01.833Z,7.70
2023-05-22T05:49:11.592Z,6.60
2023-05-22T05:52:16.455Z,6.20
2023-05-22T05:55:20.004Z,5.33
2023-05-22T05:58:24.555Z,7.00
2023-05-22T06:01:46.228Z,5.68
2023-05-22T06:05:04.326Z,6.07
2023-05-22T06:08:23.032Z,7.35
2023-05-22T06:11:27.043Z,7.23
2023-05-22T06:14:31.398Z,8.48
2023-05-22T06:17:39.129Z,7.22
2023-05-22T06:20:42.359Z,7.20
2023-05-22T06:23:45.193Z,6.65
2023-05-22T06:26:48.977Z,8.83
2023-05-22T06:29:51.726Z,8.60
2023-05-22T06:32:55.696Z,9.80
2023-05-22T06:36:02.094Z,7.53
2023-05-22T06:39:06.987Z,6.13
2023-05-22T06:42:34.198Z,10.20
2023-05-22T06:45:57.104Z,6.30
2023-05-22T06:48:59.990Z,6.25
2023-05-22T06:52:11.173Z,8.15
2023-05-22T06:55:19.420Z,6.20
2023-05-22T06:58:36.185Z,6.80
2023-05-22T07:01:41.550Z,10.05
2023-05-22T07:08:23.966Z,8.45
2023-05-22T07:11:29.608Z,8.25
2023-05-22T07:14:32.330Z,8.17
2023-05-22T07:17:36.286Z,7.15
2023-05-22T07:20:39.573Z,9.32
2023-05-22T07:23:48.478Z,9.63
2023-05-22T07:26:51.110Z,8.57
2023-05-22T07:29:54.904Z,6.83
2023-05-22T07:32:59.057Z,10.73
2023-05-22T07:36:02.125Z,9.07
2023-05-22T07:39:06.342Z,9.88
2023-05-22T07:42:17.049Z,12.45
2023-05-22T07:45:26.902Z,7.63
2023-05-22T07:49:32.069Z,9.35
2023-05-22T07:53:17.603Z,8.13
2023-05-22T07:56:28.064Z,13.20
2023-05-22T07:59:36.088Z,8.68
2023-05-22T08:06:15.527Z,9.00
2023-05-22T08:09:18.158Z,11.73
2023-05-22T08:12:22.324Z,8.93
2023-05-22T08:15:25.072Z,8.70
2023-05-22T08:18:28.225Z,10.03
2023-05-22T08:21:34.476Z,8.70
2023-05-22T08:24:37.057Z,9.18
2023-05-22T08:27:41.946Z,10.95
2023-05-22T08:30:46.351Z,10.25
2023-05-22T08:33:50.663Z,8.90
2023-05-22T08:36:54.606Z,7.60
2023-05-22T08:39:58.534Z,8.10
2023-05-22T08:43:01.233Z,7.15
2023-05-22T08:46:06.027Z,9.98
2023-05-22T08:49:10.383Z,9.57
2023-05-22T08:52:19.044Z,8.43
2023-05-22T08:55:27.238Z,7.13
2023-05-22T08:58:43.684Z,14.15
2023-05-22T09:01:52.488Z,9.32
2023-05-22T09:05:09.427Z,7.33
2023-05-22T09:08:20.554Z,13.35
2023-05-22T09:11:25.245Z,8.95
2023-05-22T09:14:28.170Z,8.52
2023-05-22T09:17:32.088Z,9.52
2023-05-22T09:20:39.865Z,8.47
2023-05-22T09:23:43.144Z,8.93
2023-05-22T09:26:46.363Z,8.88
2023-05-22T09:29:51.278Z,7.22
2023-05-22T09:32:55.304Z,7.00
2023-05-22T09:35:58.538Z,7.13
2023-05-22T09:39:02.166Z,8.63
2023-05-22T09:42:06.286Z,7.32
2023-05-22T09:45:09.810Z,7.57
2023-05-22T09:48:13.747Z,8.02
2023-05-22T09:51:16.629Z,9.17
2023-05-22T09:54:26.414Z,9.25
2023-05-22T09:57:46.798Z,7.80
2023-05-22T10:01:09.146Z,6.75
2023-05-22T10:04:42.707Z,9.68
2023-05-22T10:08:00.321Z,9.53
2023-05-22T10:11:03.729Z,8.57
2023-05-22T10:14:07.644Z,8.30
2023-05-22T10:17:12.480Z,9.40
2023-05-22T10:20:16.795Z,7.93
2023-05-22T10:23:19.998Z,8.23
2023-05-22T10:26:23.731Z,8.63
2023-05-22T10:29:36.675Z,7.90
2023-05-22T10:32:45.466Z,7.30
2023-05-22T10:35:56.263Z,7.13
2023-05-22T10:39:37.699Z,6.77
2023-05-22T10:42:40.686Z,7.07
2023-05-22T10:46:07.639Z,9.00
2023-05-22T10:49:28.662Z,10.05
2023-05-22T10:52:31.683Z,10.57
2023-05-22T10:55:47.743Z,11.60
2023-05-22T10:58:57.959Z,10.13
2023-05-22T11:02:01.774Z,11.65
2023-05-22T11:05:17.210Z,9.63
2023-05-22T11:08:29.610Z,8.38
2023-05-22T11:11:32.534Z,12.23
2023-05-22T11:14:37.332Z,9.77
2023-05-22T11:17:40.212Z,11.40
2023-05-22T11:20:44.726Z,8.93
2023-05-22T11:23:47.558Z,9.15
2023-05-22T11:27:07.730Z,8.70
2023-05-22T11:30:11.948Z,11.93
2023-05-22T11:33:14.975Z,10.05
2023-05-22T11:36:19.144Z,10.82
2023-05-22T11:39:23.519Z,8.90
2023-05-22T11:42:26.417Z,7.33
2023-05-22T11:45:32.902Z,8.73
2023-05-22T11:48:50.001Z,8.48
2023-05-22T11:52:11.071Z,10.15
2023-05-22T11:55:14.692Z,8.20
2023-05-22T11:58:22.121Z,7.00
2023-05-22T12:01:26.816Z,9.00
2023-05-22T12:04:29.863Z,8.90
2023-05-22T12:07:32.587Z,10.23
2023-05-22T12:10:35.290Z,11.90
2023-05-22T12:13:38.176Z,8.17
2023-05-22T12:16:40.980Z,13.07
2023-05-22T12:19:45.262Z,9.23
2023-05-22T12:22:49.514Z,8.50
2023-05-22T12:26:04.822Z,7.80
2023-05-22T12:29:07.496Z,8.10
2023-05-22T12:32:12.445Z,9.45
2023-05-22T12:35:16.975Z,12.27
2023-05-22T12:38:23.167Z,11.35
2023-05-22T12:41:26.477Z,9.90
2023-05-22T12:44:29.138Z,11.47
2023-05-22T12:47:32.958Z,12.20
2023-05-22T12:50:36.010Z,13.90
2023-05-22T12:53:38.752Z,11.05
2023-05-22T12:56:42.111Z,10.63
2023-05-22T12:59:44.714Z,11.23
2023-05-22T13:02:47.797Z,11.13
2023-05-22T13:05:50.474Z,11.00
2023-05-22T13:08:53.173Z,21.20
2023-05-22T13:11:56.628Z,15.20
2023-05-22T13:15:00.091Z,16.40
2023-05-22T13:18:04.353Z,14.30
2023-05-22T13:21:07.303Z,18.00
2023-05-22T13:24:09.984Z,16.23
2023-05-22T13:27:23.076Z,13.13
2023-05-22T13:30:26.318Z,11.47
2023-05-22T13:33:30.093Z,12.00
2023-05-22T13:36:33.021Z,17.85
2023-05-22T13:39:35.789Z,17.88
2023-05-22T13:42:39.856Z,15.88
2023-05-22T13:45:42.612Z,14.80
2023-05-22T13:48:46.356Z,14.65
2023-05-22T13:51:49.113Z,11.88
2023-05-22T13:54:51.734Z,11.52
2023-05-22T13:57:55.190Z,11.38
2023-05-22T14:00:57.835Z,11.67
2023-05-22T14:04:00.526Z,15.02
2023-05-22T14:07:03.382Z,12.95
2023-05-22T14:10:06.957Z,13.45
2023-05-22T14:13:09.832Z,13.48
2023-05-22T14:16:12.373Z,15.33
2023-05-22T14:19:15.202Z,11.65
2023-05-22T14:22:19.083Z,12.88
2023-05-22T14:25:22.753Z,12.20
2023-05-22T14:28:25.328Z,9.50
2023-05-22T14:31:31.517Z,13.80
2023-05-22T14:34:34.054Z,12.30
2023-05-22T14:37:37.358Z,12.25
2023-05-22T14:40:39.944Z,9.60
2023-05-22T14:43:42.527Z,13.40
2023-05-22T14:46:45.853Z,10.63
2023-05-22T14:49:48.552Z,9.68
2023-05-22T14:52:51.391Z,9.60
2023-05-22T14:55:54.124Z,11.55
2023-05-22T14:58:57.415Z,13.73
2023-05-22T15:02:00.119Z,15.10
2023-05-22T15:05:02.969Z,12.60
2023-05-22T15:08:08.763Z,11.85
2023-05-22T15:11:11.666Z,9.75
2023-05-22T15:14:14.261Z,10.55
2023-05-22T15:17:17.078Z,10.77
2023-05-22T15:20:19.768Z,14.95
2023-05-22T15:23:25.392Z,18.65
2023-05-22T15:26:28.042Z,18.13
2023-05-22T15:29:30.827Z,15.68
2023-05-22T15:32:33.563Z,17.07
2023-05-22T15:35:36.173Z,14.45
2023-05-22T15:38:38.785Z,13.52
2023-05-22T15:41:43.178Z,12.70
2023-05-22T15:44:49.242Z,16.50
2023-05-22T15:47:51.858Z,17.40
2023-05-22T15:50:54.488Z,16.67
2023-05-22T15:53:59.818Z,16.50
2023-05-22T15:57:02.430Z,14.75
2023-05-22T16:00:06.184Z,16.13
2023-05-22T16:03:09.142Z,11.77
2023-05-22T16:06:11.878Z,16.13
2023-05-22T16:09:16.321Z,15.05
2023-05-22T16:12:19.430Z,14.55
2023-05-22T16:15:22.089Z,11.63
2023-05-22T16:18:24.888Z,15.27
2023-05-22T16:21:27.571Z,10.43
2023-05-22T16:24:30.728Z,10.07
2023-05-22T16:27:33.411Z,8.73
2023-05-22T16:30:36.321Z,12.02
2023-05-22T16:33:39.145Z,8.43
2023-05-22T16:36:41.717Z,11.57
2023-05-22T16:39:46.581Z,9.63
2023-05-22T16:42:50.051Z,10.75
2023-05-22T16:45:52.713Z,9.95
2023-05-22T16:48:55.616Z,9.33
2023-05-22T16:51:58.227Z,11.52
2023-05-22T16:55:01.368Z,14.23
2023-05-22T16:58:04.043Z,11.60
2023-05-22T17:01:07.392Z,10.35
2023-05-22T17:04:14.482Z,12.90
2023-05-22T17:07:17.125Z,10.70
2023-05-22T17:10:19.665Z,16.30
2023-05-22T17:13:22.329Z,10.15
2023-05-22T17:16:25.042Z,9.23
2023-05-22T17:19:27.695Z,14.03
2023-05-22T17:22:30.256Z,9.98
2023-05-22T17:25:32.947Z,10.02
2023-05-22T17:28:35.842Z,11.40
2023-05-22T17:31:41.009Z,10.95
2023-05-22T17:34:43.759Z,9.97
2023-05-22T17:37:46.335Z,10.05
2023-05-22T17:40:49.273Z,9.82
2023-05-22T17:43:52.298Z,10.80
2023-05-22T17:46:54.836Z,12.32
2023-05-22T17:49:57.388Z,11.07
2023-05-22T17:53:00.050Z,15.18
2023-05-22T17:56:02.746Z,9.48
2023-05-22T17:59:07.771Z,8.35
2023-05-22T18:02:10.989Z,9.40
2023-05-22T18:05:13.598Z,8.50
2023-05-22T18:08:17.579Z,11.93
2023-05-22T18:11:20.258Z,11.63
2023-05-22T18:14:22.898Z,11.70
2023-05-22T18:17:25.609Z,8.13
2023-05-22T18:20:28.301Z,10.27
2023-05-22T18:23:31.126Z,10.00
2023-05-22T18:26:34.086Z,8.23
2023-05-22T18:29:37.654Z,12.15
2023-05-22T18:32:40.703Z,9.73
2023-05-22T18:35:43.690Z,9.17
2023-05-22T18:38:46.744Z,9.50
2023-05-22T18:41:49.534Z,10.05
2023-05-22T18:44:52.388Z,9.63
2023-05-22T18:47:55.211Z,11.48
2023-05-22T18:50:59.009Z,8.27
2023-05-22T18:54:01.761Z,8.65
2023-05-22T18:57:04.996Z,8.90
2023-05-22T19:00:10.477Z,7.68
2023-05-22T19:03:14.328Z,8.43
2023-05-22T19:06:18.957Z,8.57
2023-05-22T19:09:22.641Z,9.27
2023-05-22T19:12:31.648Z,10.52
2023-05-22T19:15:35.353Z,12.50
2023-05-22T19:18:38.893Z,9.55
2023-05-22T19:21:42.412Z,10.43
2023-05-22T19:24:46.024Z,9.82
2023-05-22T19:27:50.262Z,8.40
2023-05-22T19:30:57.712Z,9.65
2023-05-22T19:34:02.101Z,10.93
2023-05-22T19:37:10.704Z,9.53
2023-05-22T19:40:17.126Z,9.98
2023-05-22T19:43:26.346Z,7.60
2023-05-22T19:46:32.205Z,9.18
2023-05-22T19:49:37.346Z,10.43
2023-05-22T19:53:01.859Z,9.67
2023-05-22T19:56:10.653Z,9.18
2023-05-22T19:59:21.223Z,9.52
2023-05-22T20:02:29.752Z,8.35
2023-05-22T20:05:33.601Z,8.13
2023-05-22T20:08:42.937Z,10.07
2023-05-22T20:11:53.157Z,9.80
2023-05-22T20:14:58.595Z,7.28
2023-05-22T20:18:04.022Z,10.13
2023-05-22T20:21:10.244Z,7.07
2023-05-22T20:24:17.630Z,8.77
2023-05-22T20:27:20.325Z,10.00
2023-05-22T20:30:23.137Z,8.30
2023-05-22T20:33:26.689Z,8.55
2023-05-22T20:36:29.468Z,10.05
2023-05-22T20:39:32.320Z,7.27
2023-05-22T20:42:38.458Z,8.23
2023-05-22T20:45:45.760Z,10.93
2023-05-22T20:48:49.158Z,7.05
2023-05-22T20:51:51.739Z,8.45
2023-05-22T20:54:54.313Z,9.67
2023-05-22T20:57:56.985Z,8.32
2023-05-22T21:00:59.590Z,8.07
2023-05-22T21:04:02.897Z,8.77
2023-05-22T21:07:05.522Z,10.57
2023-05-22T21:10:08.580Z,8.17
2023-05-22T21:13:11.325Z,9.68
2023-05-22T21:16:13.935Z,7.25
2023-05-22T21:19:16.710Z,7.18
2023-05-22T21:22:19.414Z,8.18
2023-05-22T21:25:23.597Z,8.37
2023-05-22T21:28:26.205Z,6.63
2023-05-22T21:31:28.768Z,8.98
2023-05-22T21:34:31.346Z,9.65
2023-05-22T21:37:33.972Z,9.10
2023-05-22T21:40:36.592Z,7.43
2023-05-22T21:43:39.392Z,11.02
2023-05-22T21:46:41.989Z,7.80
2023-05-22T21:49:44.522Z,8.35
2023-05-22T21:52:47.118Z,7.30
2023-05-22T21:55:50.349Z,9.10
2023-05-22T21:58:53.417Z,6.78
2023-05-22T22:01:56.015Z,8.27
2023-05-22T22:04:58.697Z,9.30
2023-05-22T22:08:01.274Z,7.03
2023-05-22T22:11:03.878Z,8.17
2023-05-22T22:14:08.410Z,6.55
2023-05-22T22:17:10.930Z,6.35
2023-05-22T22:20:13.527Z,7.07
2023-05-22T22:23:16.202Z,6.85
2023-05-22T22:26:18.783Z,6.63
2023-05-22T22:29:21.315Z,7.07
2023-05-22T22:32:23.945Z,6.22
2023-05-22T22:35:26.491Z,9.35
2023-05-22T22:38:32.786Z,6.22
2023-05-22T22:41:35.340Z,8.63
2023-05-22T22:44:38.079Z,6.95
2023-05-22T22:47:40.764Z,6.53
2023-05-22T22:50:44.123Z,8.43
2023-05-22T22:53:46.782Z,8.50
2023-05-22T22:56:52.372Z,7.93
2023-05-22T22:59:54.975Z,9.68
2023-05-22T23:02:57.756Z,5.97
2023-05-22T23:06:00.329Z,6.60
2023-05-22T23:09:04.050Z,8.18
2023-05-22T23:12:08.613Z,6.70
2023-05-22T23:15:13.449Z,7.75
2023-05-22T23:18:16.402Z,6.88
2023-05-22T23:21:19.017Z,8.23
2023-05-22T23:24:21.601Z,7.10
2023-05-22T23:27:24.612Z,8.03
2023-05-22T23:30:27.127Z,7.00
2023-05-22T23:33:29.745Z,6.47
2023-05-22T23:36:32.748Z,7.90
2023-05-22T23:39:35.265Z,9.02
2023-05-22T23:42:37.896Z,6.03
2023-05-22T23:45:40.939Z,7.20
2023-05-22T23:48:43.569Z,6.35
2023-05-22T23:51:46.075Z,5.57
2023-05-22T23:54:48.726Z,7.28
2023-05-22T23:57:51.240Z,6.00
